MMPR/PVR METAR and TAF weather

Enter ICAO airport designator
Station Type Date Time Source
MMPR METAR 2020/01/28 20:51 UTC NOAA

MMPR 282051Z 21010KT 15SM FEW020 26/19 A2987 RMK SLP114 57022 976 8/100


Station Type Date Time Source
MMPR Decoded METAR 2020/01/28 20:51 UTC NOAA

Puerto Vallarta / Lic, Mexico (MMPR) 20-41N 105-15W
Jan 28, 2020 - 03:51 PM EST / 2020.01.28 2051 UTC
Wind: from the SSW (210 degrees) at 12 MPH (10 KT):0
Visibility: 15 mile(s):0
Sky conditions: mostly clear
Temperature: 78 F (26 C)
Dew Point: 66 F (19 C)
Relative Humidity: 65%
Pressure (altimeter): 29.87 in. Hg (1011 hPa)
Pressure tendency: 0.06 inches (2.2 hPa) lower than three hours ago
ob: MMPR 282051Z 21010KT 15SM FEW020 26/19 A2987 RMK SLP114 57022 976 8/100
cycle: 21

Station Type Date Time Source
MMPR TAF 2020/01/28 18:54 UTC NOAA

TAF MMPR 281650Z 2818/2924 03015KT P6SM SKC TX29/2820Z TN18/2912Z
BECMG 2901/2902 00000KT
FM291600 06010KT P6SM SKC

Example: see airport list